Puritan, Pennsylvania
Current Conditions -  °F | °C
As of 12:54 AM on Sunday 26 Oct 2014 (Local Time) from KJST Reporting Station
Clear Clear  
Wind Chill: 54°   Ceiling: Unl
Heat Index: 54°   Visibility: 10mi
Dew Point: 36°   Wind: 26mph
Humidity: 51%   Direction: 300°WNW
Pressure: 29.73"   Gusts: 38mph
Location:  40.3821°N, 78.6524°W
Report Text: KJST 260454Z AUTO 30023G33KT 10SM CLR 12/02 A2973 RMK AO2 PK WND 31033/0453 SLP064 T01220022 401610061
Loading
Personal Weather Stations






























Interactive Weather Map
Tropical Storm Tracking
New forecast layout! Learn more

10-Day Weather Forecast

Advertisements
Track Severe Weather on mobile